createdAt,value
2023-02-03T00:00:16.727Z,16.18
2023-02-03T00:00:38.449Z,16.20
2023-02-03T00:01:00.141Z,16.23
2023-02-03T00:01:22.920Z,16.26
2023-02-03T00:01:44.628Z,16.27
2023-02-03T00:02:07.237Z,16.27
2023-02-03T00:02:28.898Z,16.28
2023-02-03T00:02:50.767Z,16.24
2023-02-03T00:03:12.491Z,16.27
2023-02-03T00:03:35.069Z,16.31
2023-02-03T00:03:56.737Z,16.29
2023-02-03T00:04:18.384Z,16.29
2023-02-03T00:04:41.092Z,16.25
2023-02-03T00:05:03.131Z,16.29
2023-02-03T00:05:25.087Z,16.30
2023-02-03T00:05:47.080Z,16.23
2023-02-03T00:06:10.041Z,16.12
2023-02-03T00:06:32.620Z,16.14
2023-02-03T00:06:54.461Z,16.17
2023-02-03T00:07:16.238Z,16.07
2023-02-03T00:07:40.656Z,16.06
2023-02-03T00:08:04.053Z,16.06
2023-02-03T00:08:25.700Z,15.97
2023-02-03T00:08:47.502Z,15.94
2023-02-03T00:09:09.299Z,15.98
2023-02-03T00:09:33.272Z,16.03
2023-02-03T00:09:56.021Z,16.03
2023-02-03T00:10:21.267Z,16.06
2023-02-03T00:10:43.049Z,16.04
2023-02-03T00:11:06.308Z,16.01
2023-02-03T00:11:31.338Z,16.01
2023-02-03T00:11:53.854Z,16.03
2023-02-03T00:12:15.563Z,16.03
2023-02-03T00:12:38.133Z,16.01
2023-02-03T00:12:59.862Z,15.94
2023-02-03T00:13:22.143Z,15.91
2023-02-03T00:13:43.757Z,15.90
2023-02-03T00:14:07.923Z,15.93
2023-02-03T00:14:29.626Z,15.92
2023-02-03T00:14:51.229Z,15.91
2023-02-03T00:15:12.832Z,15.71
2023-02-03T00:15:35.413Z,15.78
2023-02-03T00:15:57.143Z,15.81
2023-02-03T00:16:18.899Z,15.85
2023-02-03T00:16:40.573Z,15.76
2023-02-03T00:17:03.250Z,15.80
2023-02-03T00:17:24.932Z,15.83
2023-02-03T00:17:47.429Z,15.84
2023-02-03T00:18:09.087Z,15.91
2023-02-03T00:18:31.309Z,15.91
2023-02-03T00:18:54.043Z,15.96
2023-02-03T00:19:17.504Z,15.87
2023-02-03T00:19:39.348Z,15.97
2023-02-03T00:20:00.974Z,15.95
2023-02-03T00:20:23.781Z,15.98
2023-02-03T00:20:45.617Z,16.03
2023-02-03T00:21:07.658Z,16.02
2023-02-03T00:21:29.303Z,16.02
2023-02-03T00:21:50.850Z,15.99
2023-02-03T00:22:13.529Z,16.02
2023-02-03T00:22:35.177Z,15.89
2023-02-03T00:23:03.748Z,15.92
2023-02-03T00:23:25.934Z,15.92
2023-02-03T00:23:48.548Z,15.98
2023-02-03T00:24:10.264Z,16.00
2023-02-03T00:24:33.240Z,16.01
2023-02-03T00:24:54.875Z,15.99
2023-02-03T00:25:16.782Z,15.99
2023-02-03T00:25:40.112Z,16.05
2023-02-03T00:26:07.672Z,16.05
2023-02-03T00:26:29.612Z,16.01
2023-02-03T00:26:51.361Z,15.98
2023-02-03T00:27:14.270Z,15.95
2023-02-03T00:27:36.070Z,15.97
2023-02-03T00:27:57.958Z,15.88
2023-02-03T00:28:19.613Z,15.88
2023-02-03T00:28:42.258Z,15.81
2023-02-03T00:29:03.941Z,15.89
2023-02-03T00:29:26.062Z,15.90
2023-02-03T00:29:48.064Z,15.78
2023-02-03T00:30:12.073Z,15.74
2023-02-03T00:30:34.718Z,15.80
2023-02-03T00:30:56.382Z,15.85
2023-02-03T00:31:20.264Z,15.73
2023-02-03T00:31:42.035Z,15.75
2023-02-03T00:32:05.213Z,15.78
2023-02-03T00:32:27.170Z,15.78
2023-02-03T00:32:48.926Z,15.80
2023-02-03T00:33:10.634Z,15.84
2023-02-03T00:33:33.738Z,15.87
2023-02-03T00:33:58.654Z,15.87
2023-02-03T00:34:20.555Z,15.93
2023-02-03T00:34:42.145Z,15.96
2023-02-03T00:35:05.204Z,15.93
2023-02-03T00:35:26.823Z,15.93
2023-02-03T00:35:49.667Z,15.96
2023-02-03T00:36:12.402Z,16.00
2023-02-03T00:36:34.061Z,15.99
2023-02-03T00:36:56.960Z,15.98
2023-02-03T00:37:18.573Z,16.04
2023-02-03T00:37:40.906Z,15.99
2023-02-03T00:38:02.483Z,15.87
2023-02-03T00:38:28.618Z,15.90
2023-02-03T00:38:50.374Z,15.92
2023-02-03T00:39:12.137Z,15.94
2023-02-03T00:39:37.250Z,15.97
2023-02-03T00:39:58.945Z,16.00
2023-02-03T00:40:20.964Z,15.94
2023-02-03T00:40:42.559Z,15.69
2023-02-03T00:41:05.230Z,15.66
2023-02-03T00:41:29.717Z,15.65
2023-02-03T00:41:51.379Z,15.73
2023-02-03T00:42:12.996Z,15.76
2023-02-03T00:42:34.919Z,15.82
2023-02-03T00:42:57.546Z,15.87
2023-02-03T00:43:19.252Z,15.87
2023-02-03T00:43:40.906Z,15.90
2023-02-03T00:44:02.803Z,15.69
2023-02-03T00:44:25.454Z,15.62
2023-02-03T00:44:47.097Z,15.69
2023-02-03T00:45:09.356Z,15.66
2023-02-03T00:45:30.992Z,15.67
2023-02-03T00:45:53.634Z,15.71
2023-02-03T00:46:16.060Z,15.71
2023-02-03T00:46:38.120Z,15.79
2023-02-03T00:46:59.727Z,15.85
2023-02-03T00:47:22.347Z,15.90
2023-02-03T00:47:45.551Z,15.85
2023-02-03T00:48:10.403Z,15.91
2023-02-03T00:48:33.097Z,15.99
2023-02-03T00:48:55.998Z,15.99
2023-02-03T00:49:23.023Z,15.92
2023-02-03T00:49:47.725Z,15.73
2023-02-03T00:50:11.039Z,15.54
2023-02-03T00:50:36.639Z,15.58
2023-02-03T00:50:59.596Z,15.61
2023-02-03T00:51:21.545Z,15.67
2023-02-03T00:51:43.760Z,15.75
2023-02-03T00:52:06.011Z,15.79
2023-02-03T00:52:30.664Z,15.84
2023-02-03T00:52:52.826Z,15.90
2023-02-03T00:53:17.202Z,15.96
2023-02-03T00:53:41.265Z,15.94
2023-02-03T00:54:05.536Z,16.01
2023-02-03T00:54:32.616Z,16.04
2023-02-03T00:54:56.473Z,16.03
2023-02-03T00:55:19.061Z,16.03
2023-02-03T00:55:44.600Z,15.96
2023-02-03T00:56:13.547Z,15.99
2023-02-03T00:56:35.282Z,16.01
2023-02-03T00:56:57.168Z,15.94
2023-02-03T00:57:20.120Z,15.86
2023-02-03T00:57:41.812Z,15.83
2023-02-03T00:58:03.528Z,15.84
2023-02-03T00:58:27.230Z,15.82
2023-02-03T00:58:50.964Z,15.83
2023-02-03T00:59:15.060Z,15.71
2023-02-03T00:59:37.385Z,15.66
2023-02-03T00:59:59.666Z,15.40
2023-02-03T01:00:22.564Z,15.45
2023-02-03T01:00:46.825Z,15.57
2023-02-03T01:01:10.354Z,15.66
2023-02-03T01:01:33.091Z,15.55
2023-02-03T01:01:55.097Z,15.67
2023-02-03T01:02:17.071Z,15.74
2023-02-03T01:02:38.796Z,15.80
2023-02-03T01:03:01.343Z,15.85
2023-02-03T01:03:25.103Z,15.87
2023-02-03T01:03:48.201Z,15.92
2023-02-03T01:04:11.039Z,15.92
2023-02-03T01:04:32.744Z,15.82
2023-02-03T01:04:55.323Z,15.88
2023-02-03T01:05:16.995Z,15.90
2023-02-03T01:05:38.749Z,15.95
2023-02-03T01:06:09.008Z,16.01
2023-02-03T01:06:31.856Z,16.08
2023-02-03T01:06:57.374Z,16.05
2023-02-03T01:07:19.163Z,16.04
2023-02-03T01:07:40.816Z,16.09
2023-02-03T01:08:02.773Z,16.10
2023-02-03T01:08:25.402Z,16.09
2023-02-03T01:08:48.051Z,16.05
2023-02-03T01:09:09.720Z,16.07
2023-02-03T01:09:33.908Z,16.11
2023-02-03T01:09:56.855Z,16.17
2023-02-03T01:10:19.587Z,15.99
2023-02-03T01:10:41.538Z,15.70
2023-02-03T01:11:07.060Z,15.63
2023-02-03T01:11:28.800Z,15.72
2023-02-03T01:11:51.469Z,15.76
2023-02-03T01:12:13.101Z,15.84
2023-02-03T01:12:35.674Z,15.85
2023-02-03T01:12:57.404Z,15.87
2023-02-03T01:13:19.938Z,15.89
2023-02-03T01:13:41.582Z,15.90
2023-02-03T01:14:03.295Z,15.90
2023-02-03T01:14:24.929Z,15.93
2023-02-03T01:14:47.594Z,15.94
2023-02-03T01:15:11.028Z,16.02
2023-02-03T01:15:32.913Z,16.03
2023-02-03T01:15:54.544Z,16.06
2023-02-03T01:16:19.024Z,16.04
2023-02-03T01:16:41.068Z,16.09
2023-02-03T01:17:03.245Z,16.10
2023-02-03T01:17:25.393Z,16.13
2023-02-03T01:17:48.542Z,16.12
2023-02-03T01:18:10.137Z,16.09
2023-02-03T01:18:32.073Z,16.09
2023-02-03T01:19:08.231Z,16.10
2023-02-03T01:19:31.317Z,16.10
2023-02-03T01:19:53.792Z,16.10
2023-02-03T01:20:17.049Z,16.03
2023-02-03T01:20:39.016Z,15.90
2023-02-03T01:21:05.713Z,15.92
2023-02-03T01:21:29.428Z,15.96
2023-02-03T01:21:51.315Z,15.98
2023-02-03T01:22:13.192Z,15.96
2023-02-03T01:22:34.884Z,15.88
2023-02-03T01:22:57.825Z,15.78
2023-02-03T01:23:19.944Z,15.87
2023-02-03T01:23:42.609Z,15.87
2023-02-03T01:24:06.721Z,15.94
2023-02-03T01:24:29.601Z,16.01
2023-02-03T01:24:51.335Z,16.02
2023-02-03T01:25:14.487Z,15.87
2023-02-03T01:25:36.359Z,16.01
2023-02-03T01:26:03.842Z,16.10
2023-02-03T01:26:25.862Z,16.12
2023-02-03T01:26:47.554Z,16.05
2023-02-03T01:27:11.209Z,15.89
2023-02-03T01:27:33.333Z,15.74
2023-02-03T01:27:55.061Z,15.76
2023-02-03T01:28:18.889Z,15.83
2023-02-03T01:28:42.382Z,15.84
2023-02-03T01:29:04.315Z,15.93
2023-02-03T01:29:26.394Z,15.93
2023-02-03T01:29:48.945Z,16.01
2023-02-03T01:30:12.990Z,16.08
2023-02-03T01:30:35.017Z,16.07
2023-02-03T01:30:58.870Z,15.98
2023-02-03T01:31:23.121Z,16.03
2023-02-03T01:31:45.016Z,16.08
2023-02-03T01:32:08.891Z,16.11
2023-02-03T01:32:30.758Z,16.16
2023-02-03T01:32:52.697Z,16.17
2023-02-03T01:33:14.630Z,16.23
2023-02-03T01:33:36.581Z,16.04
2023-02-03T01:33:59.730Z,16.28
2023-02-03T01:34:21.487Z,16.11
2023-02-03T01:34:43.377Z,16.31
2023-02-03T01:35:05.492Z,16.12
2023-02-03T01:35:27.392Z,16.26
2023-02-03T01:35:50.361Z,16.15
2023-02-03T01:36:13.327Z,16.29
2023-02-03T01:36:35.777Z,16.30
2023-02-03T01:36:57.522Z,16.22
2023-02-03T01:37:20.159Z,16.31
2023-02-03T01:37:42.591Z,16.30
2023-02-03T01:38:05.657Z,16.33
2023-02-03T01:38:27.446Z,16.35
2023-02-03T01:38:49.718Z,16.34
2023-02-03T01:39:12.431Z,16.24
2023-02-03T01:39:34.163Z,16.11
2023-02-03T01:39:55.849Z,16.22
2023-02-03T01:40:19.587Z,16.14
2023-02-03T01:40:45.784Z,16.14
2023-02-03T01:41:12.515Z,16.14
2023-02-03T01:41:37.005Z,16.22
2023-02-03T01:41:58.897Z,16.24
2023-02-03T01:42:21.701Z,16.26
2023-02-03T01:42:43.313Z,16.20
2023-02-03T01:43:05.038Z,16.29
2023-02-03T01:43:31.388Z,16.27
2023-02-03T01:43:58.300Z,16.18
2023-02-03T01:44:39.663Z,16.19
2023-02-03T01:45:01.448Z,16.25
2023-02-03T01:45:24.322Z,16.28
2023-02-03T01:45:46.506Z,16.26
2023-02-03T01:46:22.191Z,16.26
2023-02-03T01:46:48.717Z,16.09
2023-02-03T01:47:23.414Z,16.28
2023-02-03T01:47:48.439Z,15.95
2023-02-03T01:48:10.245Z,16.23
2023-02-03T01:48:34.925Z,16.22
2023-02-03T01:49:04.783Z,16.26
2023-02-03T01:49:31.975Z,16.31
2023-02-03T01:50:00.281Z,16.31
2023-02-03T01:50:26.772Z,16.29
2023-02-03T01:50:48.745Z,16.23
2023-02-03T01:51:10.799Z,16.21
2023-02-03T01:51:32.820Z,16.26
2023-02-03T01:51:55.113Z,16.29
2023-02-03T01:52:18.625Z,16.11
2023-02-03T01:52:42.275Z,16.08
2023-02-03T01:53:07.112Z,16.15
2023-02-03T01:53:30.560Z,16.18
2023-02-03T01:53:54.294Z,16.38
2023-02-03T01:54:21.520Z,16.28
2023-02-03T01:54:47.753Z,16.12
2023-02-03T01:55:12.922Z,16.03
2023-02-03T01:55:41.901Z,15.90
2023-02-03T01:56:04.935Z,16.32
2023-02-03T01:56:30.536Z,16.34
2023-02-03T01:57:03.028Z,16.37
2023-02-03T01:57:30.612Z,16.37
2023-02-03T01:57:56.876Z,16.40
2023-02-03T01:58:24.642Z,16.40
2023-02-03T01:58:48.681Z,16.39
2023-02-03T01:59:12.946Z,16.23
2023-02-03T01:59:36.498Z,16.23
2023-02-03T02:00:00.483Z,16.21
2023-02-03T02:00:23.936Z,16.20
2023-02-03T02:00:49.769Z,16.47
2023-02-03T02:01:11.692Z,16.47
2023-02-03T02:01:34.646Z,16.28
2023-02-03T02:01:57.520Z,16.41
2023-02-03T02:02:20.608Z,16.25
2023-02-03T02:02:46.187Z,16.45
2023-02-03T02:03:09.129Z,16.22
2023-02-03T02:03:34.814Z,16.25
2023-02-03T02:04:01.915Z,16.48
2023-02-03T02:04:29.085Z,16.41
2023-02-03T02:04:57.178Z,16.49
2023-02-03T02:05:25.631Z,16.47
2023-02-03T02:05:51.899Z,16.37
2023-02-03T02:06:14.636Z,16.42
2023-02-03T02:06:36.466Z,16.40
2023-02-03T02:06:59.296Z,16.35
2023-02-03T02:07:21.123Z,16.13
2023-02-03T02:07:45.092Z,16.37
2023-02-03T02:08:09.622Z,16.33
2023-02-03T02:08:31.609Z,16.11
2023-02-03T02:08:54.689Z,16.27
2023-02-03T02:09:16.614Z,16.35
2023-02-03T02:09:39.890Z,16.35
2023-02-03T02:10:02.272Z,16.35
2023-02-03T02:10:24.642Z,16.36
2023-02-03T02:10:48.802Z,16.34
2023-02-03T02:11:12.787Z,16.35
2023-02-03T02:11:36.279Z,16.37
2023-02-03T02:11:57.997Z,16.39
2023-02-03T02:12:19.806Z,16.40
2023-02-03T02:12:42.584Z,16.43
2023-02-03T02:13:06.212Z,16.43
2023-02-03T02:13:30.469Z,16.43
2023-02-03T02:13:56.124Z,16.38
2023-02-03T02:14:19.371Z,16.28
2023-02-03T02:14:44.083Z,16.35
2023-02-03T02:15:07.028Z,16.39
2023-02-03T02:15:38.210Z,16.39
2023-02-03T02:16:11.252Z,16.39
2023-02-03T02:16:42.436Z,16.47
2023-02-03T02:17:12.091Z,16.46
2023-02-03T02:17:55.174Z,16.53
2023-02-03T02:18:28.728Z,16.54
2023-02-03T02:19:21.461Z,16.61
2023-02-03T02:20:25.185Z,16.60
2023-02-03T02:21:12.537Z,16.62
2023-02-03T02:21:47.844Z,16.54
2023-02-03T02:22:14.646Z,16.57
2023-02-03T02:22:56.497Z,16.38
2023-02-03T02:23:41.844Z,16.53
2023-02-03T02:24:38.962Z,16.54
2023-02-03T02:25:29.077Z,16.36
2023-02-03T02:26:13.450Z,16.47
2023-02-03T02:26:49.321Z,16.56
2023-02-03T02:27:26.533Z,16.47
2023-02-03T02:28:12.946Z,16.19
2023-02-03T02:28:59.942Z,16.30
2023-02-03T02:29:45.916Z,16.36
2023-02-03T02:30:30.823Z,16.18
2023-02-03T02:31:18.222Z,16.10
2023-02-03T02:31:59.418Z,16.15
2023-02-03T02:32:33.796Z,16.20
2023-02-03T02:33:02.837Z,16.21
2023-02-03T02:33:38.430Z,16.26
2023-02-03T02:34:08.984Z,16.30
2023-02-03T02:34:44.356Z,16.22
2023-02-03T02:35:17.072Z,16.09
2023-02-03T02:35:47.953Z,16.25
2023-02-03T02:36:24.296Z,16.14
2023-02-03T02:36:58.532Z,16.23
2023-02-03T02:37:30.505Z,16.27
2023-02-03T02:37:59.753Z,16.26
2023-02-03T02:38:35.874Z,16.16
2023-02-03T02:39:05.918Z,16.21
2023-02-03T02:39:37.786Z,16.42
2023-02-03T02:40:09.886Z,16.32
2023-02-03T02:40:36.103Z,16.45
2023-02-03T02:41:05.567Z,16.40
2023-02-03T02:41:31.717Z,16.28
2023-02-03T02:41:59.306Z,16.29
2023-02-03T02:42:30.023Z,16.18
2023-02-03T02:43:02.038Z,15.70
2023-02-03T02:43:34.614Z,15.90
2023-02-03T02:44:01.423Z,15.84
2023-02-03T02:44:26.914Z,16.05
2023-02-03T02:44:52.298Z,16.02
2023-02-03T02:45:20.463Z,16.01
2023-02-03T02:45:48.187Z,16.06
2023-02-03T02:46:14.690Z,16.02
2023-02-03T02:46:42.764Z,15.97
2023-02-03T02:47:11.110Z,15.94
2023-02-03T02:47:34.197Z,15.84
2023-02-03T02:48:03.481Z,15.60
2023-02-03T02:48:33.628Z,15.93
2023-02-03T02:48:59.008Z,15.84
2023-02-03T02:49:25.660Z,15.90
2023-02-03T02:49:54.552Z,15.92
2023-02-03T02:50:24.441Z,15.76
2023-02-03T02:50:50.257Z,15.71
2023-02-03T02:51:15.486Z,16.04
2023-02-03T02:51:39.796Z,15.92
2023-02-03T02:52:06.050Z,15.90
2023-02-03T02:52:31.571Z,16.12
2023-02-03T02:52:54.306Z,16.17
2023-02-03T02:53:19.299Z,16.14
2023-02-03T02:53:47.669Z,15.94
2023-02-03T02:54:15.770Z,16.13
2023-02-03T02:54:41.490Z,16.08
2023-02-03T02:55:08.371Z,16.04
2023-02-03T02:55:35.008Z,15.96
2023-02-03T02:56:03.294Z,16.08
2023-02-03T02:56:26.891Z,16.13
2023-02-03T02:56:55.304Z,16.02
2023-02-03T02:57:20.419Z,16.03
2023-02-03T02:57:45.268Z,16.02
2023-02-03T02:58:10.010Z,16.06
2023-02-03T02:58:34.210Z,16.13
2023-02-03T02:59:00.220Z,16.15
2023-02-03T02:59:22.017Z,16.12
2023-02-03T02:59:44.970Z,15.84
2023-02-03T03:00:09.264Z,15.97
2023-02-03T03:00:31.748Z,15.78
2023-02-03T03:00:53.454Z,16.00
2023-02-03T03:01:16.198Z,15.96
2023-02-03T03:01:37.973Z,15.88
2023-02-03T03:02:00.944Z,15.92
2023-02-03T03:02:32.363Z,15.74
2023-02-03T03:02:54.436Z,16.01
2023-02-03T03:03:19.557Z,16.05
2023-02-03T03:03:45.029Z,16.11
2023-02-03T03:04:09.072Z,15.75
2023-02-03T03:04:35.201Z,15.82
2023-02-03T03:04:57.386Z,15.91
2023-02-03T03:05:20.743Z,16.14
2023-02-03T03:05:50.943Z,16.18
2023-02-03T03:06:19.856Z,16.18
2023-02-03T03:06:46.099Z,16.21
2023-02-03T03:07:12.632Z,16.16
2023-02-03T03:07:41.103Z,16.22
2023-02-03T03:08:03.209Z,16.21
2023-02-03T03:08:31.721Z,16.16
2023-02-03T03:08:59.034Z,16.00
2023-02-03T03:09:24.574Z,16.21
2023-02-03T03:09:51.484Z,16.21
2023-02-03T03:10:19.134Z,16.19
2023-02-03T03:10:43.798Z,16.15
2023-02-03T03:11:05.729Z,16.20
2023-02-03T03:11:31.814Z,16.21
2023-02-03T03:12:00.738Z,16.18
2023-02-03T03:12:29.536Z,16.25
2023-02-03T03:12:56.194Z,15.95
2023-02-03T03:13:23.510Z,16.13
2023-02-03T03:13:50.637Z,16.02
2023-02-03T03:14:16.145Z,16.19
2023-02-03T03:14:41.404Z,16.13
2023-02-03T03:15:09.423Z,15.79
2023-02-03T03:15:37.072Z,15.79
2023-02-03T03:16:02.457Z,15.90
2023-02-03T03:16:27.508Z,15.95
2023-02-03T03:16:54.189Z,16.00
2023-02-03T03:17:21.821Z,16.00
2023-02-03T03:17:50.819Z,16.01
2023-02-03T03:18:15.970Z,16.06
2023-02-03T03:18:44.422Z,16.11
2023-02-03T03:19:11.126Z,16.03
2023-02-03T03:19:37.998Z,15.93
2023-02-03T03:20:04.166Z,15.65
2023-02-03T03:20:28.745Z,15.87
2023-02-03T03:20:54.036Z,15.92
2023-02-03T03:21:22.644Z,15.92
2023-02-03T03:21:49.192Z,15.82
2023-02-03T03:22:13.497Z,15.96
2023-02-03T03:22:41.705Z,16.02
2023-02-03T03:23:07.137Z,16.04
2023-02-03T03:23:33.620Z,16.07
2023-02-03T03:23:59.668Z,16.08
2023-02-03T03:24:27.280Z,16.13
2023-02-03T03:24:54.085Z,16.10
2023-02-03T03:25:18.004Z,16.12
2023-02-03T03:25:44.206Z,16.13
2023-02-03T03:26:12.584Z,16.19
2023-02-03T03:26:40.955Z,15.96
2023-02-03T03:27:08.903Z,16.03
2023-02-03T03:27:35.977Z,16.02
2023-02-03T03:28:02.248Z,16.23
2023-02-03T03:28:29.585Z,16.26
2023-02-03T03:28:55.627Z,16.26
2023-02-03T03:29:22.340Z,16.23
2023-02-03T03:29:49.476Z,16.28
2023-02-03T03:30:16.827Z,16.26
2023-02-03T03:30:39.643Z,16.29
2023-02-03T03:31:01.383Z,16.05
2023-02-03T03:31:24.730Z,16.25
2023-02-03T03:31:48.312Z,16.15
2023-02-03T03:32:10.883Z,16.09
2023-02-03T03:32:33.291Z,16.09
2023-02-03T03:32:58.458Z,16.01
2023-02-03T03:33:21.926Z,15.93
2023-02-03T03:33:44.402Z,16.09
2023-02-03T03:34:06.624Z,16.12
2023-02-03T03:34:29.797Z,16.02
2023-02-03T03:34:52.410Z,16.02
2023-02-03T03:35:16.323Z,15.88
2023-02-03T03:35:45.693Z,16.15
2023-02-03T03:36:16.281Z,16.22
2023-02-03T03:36:44.634Z,16.11
2023-02-03T03:37:13.847Z,16.22
2023-02-03T03:37:38.384Z,15.98
2023-02-03T03:38:06.438Z,16.22
2023-02-03T03:38:33.764Z,16.18
2023-02-03T03:39:03.002Z,16.25
2023-02-03T03:39:33.557Z,16.27
2023-02-03T03:39:57.866Z,16.19
2023-02-03T03:40:25.586Z,16.14
2023-02-03T03:40:53.184Z,15.93
2023-02-03T03:41:20.124Z,16.07
2023-02-03T03:41:51.608Z,16.05
2023-02-03T03:42:19.353Z,15.95
2023-02-03T03:42:47.010Z,16.16
2023-02-03T03:43:16.862Z,16.08
2023-02-03T03:43:43.438Z,16.03
2023-02-03T03:44:10.940Z,16.06
2023-02-03T03:44:38.619Z,16.10
2023-02-03T03:45:07.419Z,16.07
2023-02-03T03:45:35.735Z,16.11
2023-02-03T03:46:04.027Z,16.15
2023-02-03T03:46:28.777Z,16.19
2023-02-03T03:47:03.980Z,16.21
2023-02-03T03:47:32.800Z,16.26
2023-02-03T03:48:00.997Z,16.07
2023-02-03T03:48:29.802Z,16.29
2023-02-03T03:48:54.640Z,16.25
2023-02-03T03:49:19.325Z,16.30
2023-02-03T03:49:44.108Z,16.15
2023-02-03T03:50:12.016Z,16.23
2023-02-03T03:50:37.077Z,16.15
2023-02-03T03:51:04.477Z,16.26
2023-02-03T03:51:31.151Z,16.30
2023-02-03T03:52:00.417Z,16.29
2023-02-03T03:52:29.032Z,16.26
2023-02-03T03:52:52.733Z,15.98
2023-02-03T03:53:17.257Z,16.13
2023-02-03T03:53:43.413Z,16.18
2023-02-03T03:54:08.762Z,16.18
2023-02-03T03:54:32.659Z,16.30
2023-02-03T03:54:56.281Z,16.20
2023-02-03T03:55:21.949Z,16.22
2023-02-03T03:55:48.656Z,16.29
2023-02-03T03:56:17.276Z,16.33
2023-02-03T03:56:41.823Z,16.38
2023-02-03T03:57:10.664Z,16.10
2023-02-03T03:57:37.503Z,16.21
2023-02-03T03:58:03.665Z,16.30
2023-02-03T03:58:29.040Z,16.11
2023-02-03T03:58:54.833Z,16.35
2023-02-03T03:59:20.834Z,16.35
2023-02-03T03:59:48.386Z,16.40
2023-02-03T04:00:15.779Z,16.44
2023-02-03T04:00:39.973Z,16.45
2023-02-03T04:01:06.187Z,16.38
2023-02-03T04:01:30.680Z,16.35
2023-02-03T04:01:53.098Z,16.32
2023-02-03T04:02:17.067Z,16.34
2023-02-03T04:02:40.957Z,16.29
2023-02-03T04:03:09.619Z,16.03
2023-02-03T04:03:38.177Z,16.26
2023-02-03T04:04:04.877Z,16.31
2023-02-03T04:04:27.636Z,16.30
2023-02-03T04:04:51.705Z,16.32
2023-02-03T04:05:14.611Z,16.29
2023-02-03T04:05:38.612Z,16.19
2023-02-03T04:06:00.464Z,16.19
2023-02-03T04:06:22.127Z,16.22
2023-02-03T04:06:45.036Z,16.26
2023-02-03T04:07:06.848Z,16.27
2023-02-03T04:07:38.798Z,16.31
2023-02-03T04:08:01.002Z,16.32
2023-02-03T04:08:23.991Z,16.29
2023-02-03T04:08:45.756Z,16.31
2023-02-03T04:09:07.677Z,16.14
2023-02-03T04:09:29.421Z,16.24
2023-02-03T04:09:52.222Z,16.16
2023-02-03T04:10:21.004Z,16.10
2023-02-03T04:10:44.198Z,15.96
2023-02-03T04:11:06.400Z,15.94
2023-02-03T04:11:46.785Z,16.16
2023-02-03T04:12:17.902Z,16.16
2023-02-03T04:12:39.832Z,16.15
2023-02-03T04:13:02.211Z,16.11
2023-02-03T04:13:24.017Z,15.91
2023-02-03T04:13:45.741Z,16.13
2023-02-03T04:14:07.407Z,16.09
2023-02-03T04:14:31.560Z,16.19
2023-02-03T04:14:53.529Z,16.22
2023-02-03T04:15:15.469Z,16.23
2023-02-03T04:15:37.874Z,16.22
2023-02-03T04:16:00.963Z,16.12
2023-02-03T04:16:22.963Z,16.02
2023-02-03T04:16:44.657Z,16.00
2023-02-03T04:17:06.529Z,15.88
2023-02-03T04:17:29.404Z,16.02
2023-02-03T04:17:51.100Z,16.03
2023-02-03T04:18:16.381Z,15.97
2023-02-03T04:18:38.160Z,16.04
2023-02-03T04:18:59.890Z,16.03
2023-02-03T04:19:24.603Z,16.02
2023-02-03T04:19:47.078Z,16.05
2023-02-03T04:20:10.038Z,16.05
2023-02-03T04:20:33.436Z,15.90
2023-02-03T04:20:56.841Z,16.00
2023-02-03T04:21:18.440Z,16.00
2023-02-03T04:21:40.249Z,16.01
2023-02-03T04:22:02.359Z,15.95
2023-02-03T04:22:24.257Z,15.93
2023-02-03T04:22:47.913Z,15.89
2023-02-03T04:23:10.451Z,15.94
2023-02-03T04:23:32.204Z,15.86
2023-02-03T04:23:54.029Z,15.73
2023-02-03T04:24:17.111Z,15.79
2023-02-03T04:24:38.884Z,15.77
2023-02-03T04:25:00.619Z,15.91
2023-02-03T04:25:22.786Z,15.79
2023-02-03T04:25:45.401Z,15.95
2023-02-03T04:26:07.093Z,16.05
2023-02-03T04:26:28.799Z,16.05
2023-02-03T04:26:50.716Z,15.99
2023-02-03T04:27:12.416Z,15.83
2023-02-03T04:27:35.478Z,15.84
2023-02-03T04:27:57.436Z,15.83
2023-02-03T04:28:19.202Z,15.97
2023-02-03T04:28:41.114Z,15.99
2023-02-03T04:29:03.048Z,15.93
2023-02-03T04:29:27.695Z,15.87
2023-02-03T04:29:50.878Z,15.92
2023-02-03T04:30:13.793Z,15.78
2023-02-03T04:30:35.757Z,15.76
2023-02-03T04:31:01.896Z,15.89
2023-02-03T04:31:23.881Z,15.76
2023-02-03T04:31:45.685Z,15.81
2023-02-03T04:32:07.495Z,15.84
2023-02-03T04:32:30.931Z,15.86
2023-02-03T04:32:53.208Z,15.79
2023-02-03T04:33:16.448Z,15.92
2023-02-03T04:33:38.249Z,16.00
2023-02-03T04:33:59.991Z,16.06
2023-02-03T04:34:22.945Z,16.09
2023-02-03T04:34:44.645Z,16.11
2023-02-03T04:35:09.095Z,16.08
2023-02-03T04:35:30.716Z,16.09
2023-02-03T04:35:53.043Z,16.12
2023-02-03T04:36:16.243Z,16.16
2023-02-03T04:36:38.087Z,16.19
2023-02-03T04:36:59.892Z,16.20
2023-02-03T04:37:23.088Z,16.21
2023-02-03T04:37:44.856Z,16.13
2023-02-03T04:38:06.533Z,16.23
2023-02-03T04:38:28.513Z,16.27
2023-02-03T04:38:53.942Z,16.29
2023-02-03T04:39:16.018Z,16.11
2023-02-03T04:39:37.887Z,16.33
2023-02-03T04:39:59.713Z,16.28
2023-02-03T04:40:22.632Z,16.33
2023-02-03T04:40:45.576Z,16.37
2023-02-03T04:41:07.455Z,16.30
2023-02-03T04:41:29.182Z,16.06
2023-02-03T04:41:51.873Z,16.22
2023-02-03T04:42:13.570Z,16.13
2023-02-03T04:42:36.971Z,16.20
2023-02-03T04:42:59.186Z,16.21
2023-02-03T04:43:21.833Z,16.23
2023-02-03T04:43:44.155Z,16.10
2023-02-03T04:44:05.784Z,16.25
2023-02-03T04:44:27.614Z,16.25
2023-02-03T04:44:50.336Z,16.24
2023-02-03T04:45:12.881Z,16.09
2023-02-03T04:45:34.731Z,16.30
2023-02-03T04:45:56.475Z,16.33
2023-02-03T04:46:19.125Z,16.27
2023-02-03T04:46:42.032Z,16.11
2023-02-03T04:47:03.894Z,16.32
2023-02-03T04:47:25.927Z,16.12
2023-02-03T04:47:54.274Z,16.28
2023-02-03T04:48:19.877Z,16.27
2023-02-03T04:48:41.640Z,16.36
2023-02-03T04:49:03.469Z,16.24
2023-02-03T04:49:25.251Z,16.22
2023-02-03T04:49:48.711Z,16.08
2023-02-03T04:50:10.464Z,16.24
2023-02-03T04:50:32.317Z,16.29
2023-02-03T04:50:54.220Z,16.32
2023-02-03T04:51:16.135Z,16.20
2023-02-03T04:51:39.168Z,16.20
2023-02-03T04:52:00.880Z,16.41
2023-02-03T04:52:22.704Z,16.43
2023-02-03T04:52:44.361Z,16.43
2023-02-03T04:53:07.287Z,16.37
2023-02-03T04:53:29.817Z,16.24
2023-02-03T04:53:51.526Z,16.10
2023-02-03T04:54:13.248Z,16.06
2023-02-03T04:54:36.003Z,16.13
2023-02-03T04:54:57.612Z,16.15
2023-02-03T04:55:19.320Z,16.18
2023-02-03T04:55:41.200Z,16.19
2023-02-03T04:56:05.003Z,16.23
2023-02-03T04:56:28.258Z,16.17
2023-02-03T04:56:50.130Z,16.04
2023-02-03T04:57:11.860Z,16.04
2023-02-03T04:57:34.558Z,16.16
2023-02-03T04:57:56.570Z,16.28
2023-02-03T04:58:18.238Z,16.31
2023-02-03T04:58:40.832Z,16.34
2023-02-03T04:59:02.535Z,16.35
2023-02-03T04:59:24.202Z,16.38
2023-02-03T04:59:45.836Z,16.39
2023-02-03T05:00:08.796Z,16.25
2023-02-03T05:00:33.365Z,16.31
2023-02-03T05:00:55.931Z,16.26
2023-02-03T05:01:19.452Z,16.24
2023-02-03T05:01:43.203Z,16.33
2023-02-03T05:02:05.534Z,16.09
2023-02-03T05:02:27.233Z,16.39
2023-02-03T05:02:49.267Z,16.42
2023-02-03T05:03:13.323Z,16.39
2023-02-03T05:03:36.831Z,16.41
2023-02-03T05:03:58.471Z,16.47
2023-02-03T05:04:20.266Z,16.49
2023-02-03T05:04:43.018Z,16.47
2023-02-03T05:05:05.566Z,16.52
2023-02-03T05:05:27.390Z,16.50
2023-02-03T05:05:49.578Z,16.50
2023-02-03T05:06:12.412Z,16.43
2023-02-03T05:06:34.625Z,16.46
2023-02-03T05:06:56.802Z,16.41
2023-02-03T05:07:18.709Z,16.38
2023-02-03T05:07:41.535Z,16.37
2023-02-03T05:08:03.364Z,16.37
2023-02-03T05:08:25.217Z,16.34
2023-02-03T05:08:47.130Z,16.30
2023-02-03T05:09:09.793Z,16.29
2023-02-03T05:09:31.442Z,16.28
2023-02-03T05:09:54.615Z,16.29
2023-02-03T05:10:16.339Z,16.16
2023-02-03T05:10:39.685Z,16.13
2023-02-03T05:11:02.517Z,16.24
2023-02-03T05:11:24.632Z,16.03
2023-02-03T05:11:47.320Z,16.18
2023-02-03T05:12:09.095Z,16.17
2023-02-03T05:12:31.253Z,16.08
2023-02-03T05:12:53.044Z,16.17
2023-02-03T05:13:16.053Z,16.19
2023-02-03T05:13:38.159Z,16.17
2023-02-03T05:14:00.294Z,16.00
2023-02-03T05:14:22.043Z,15.93
2023-02-03T05:14:45.037Z,15.98
2023-02-03T05:15:08.885Z,15.99
2023-02-03T05:15:30.867Z,16.05
2023-02-03T05:15:52.844Z,16.05
2023-02-03T05:16:15.966Z,16.06
2023-02-03T05:16:37.737Z,16.07
2023-02-03T05:16:59.692Z,16.09
2023-02-03T05:17:21.921Z,15.89